createdAt,value
2019-04-21T00:01:52.122Z,6.30
2019-04-21T00:04:33.245Z,6.30
2019-04-21T00:07:10.415Z,6.30
2019-04-21T00:09:48.069Z,6.30
2019-04-21T00:12:13.789Z,6.30
2019-04-21T00:14:35.003Z,6.30
2019-04-21T00:17:00.645Z,6.30
2019-04-21T00:19:47.688Z,6.30
2019-04-21T00:22:33.150Z,6.30
2019-04-21T00:25:03.158Z,6.30
2019-04-21T00:27:35.137Z,6.30
2019-04-21T00:30:14.217Z,6.30
2019-04-21T00:32:31.665Z,6.30
2019-04-21T00:34:56.520Z,6.20
2019-04-21T00:37:30.290Z,6.20
2019-04-21T00:40:13.197Z,6.10
2019-04-21T00:42:41.568Z,6.10
2019-04-21T00:45:10.779Z,6.00
2019-04-21T00:47:45.929Z,5.90
2019-04-21T00:50:10.796Z,5.90
2019-04-21T00:52:56.256Z,5.90
2019-04-21T00:57:58.588Z,5.90
2019-04-21T01:00:27.418Z,5.90
2019-04-21T01:03:14.239Z,5.90
2019-04-21T01:05:26.964Z,6.00
2019-04-21T01:07:59.414Z,6.10
2019-04-21T01:10:24.136Z,6.00
2019-04-21T01:13:05.204Z,6.10
2019-04-21T01:15:38.159Z,6.00
2019-04-21T01:18:04.849Z,6.00
2019-04-21T01:20:17.301Z,5.90
2019-04-21T01:22:43.221Z,5.90
2019-04-21T01:25:19.864Z,6.00
2019-04-21T01:27:59.443Z,5.90
2019-04-21T01:30:34.689Z,5.80
2019-04-21T01:33:07.227Z,5.80
2019-04-21T01:35:34.285Z,5.70
2019-04-21T01:38:12.544Z,5.60
2019-04-21T01:40:43.335Z,5.60
2019-04-21T01:43:07.429Z,5.50
2019-04-21T01:45:37.351Z,5.50
2019-04-21T01:48:06.261Z,5.40
2019-04-21T01:50:34.427Z,5.40
2019-04-21T01:53:17.574Z,5.20
2019-04-21T01:56:12.088Z,5.30
2019-04-21T01:58:36.583Z,5.40
2019-04-21T02:01:21.196Z,5.40
2019-04-21T02:03:54.347Z,5.50
2019-04-21T02:06:21.302Z,5.50
2019-04-21T02:08:49.069Z,5.50
2019-04-21T02:11:24.436Z,5.40
2019-04-21T02:13:58.914Z,5.40
2019-04-21T02:16:25.968Z,5.30
2019-04-21T02:18:49.398Z,5.30
2019-04-21T02:21:20.378Z,5.40
2019-04-21T02:23:59.064Z,5.30
2019-04-21T02:26:27.216Z,5.20
2019-04-21T02:32:00.355Z,5.20
2019-04-21T02:34:23.915Z,5.10
2019-04-21T02:37:05.209Z,5.10
2019-04-21T02:41:55.734Z,5.00
2019-04-21T02:44:30.303Z,4.90
2019-04-21T02:46:50.307Z,4.90
2019-04-21T02:49:39.883Z,4.90
2019-04-21T02:52:01.340Z,4.90
2019-04-21T02:57:01.290Z,5.10
2019-04-21T02:59:49.401Z,5.10
2019-04-21T03:02:35.441Z,5.20
2019-04-21T03:05:36.416Z,5.10
2019-04-21T03:08:09.906Z,5.00
2019-04-21T03:13:06.029Z,5.00
2019-04-21T03:15:37.629Z,5.00
2019-04-21T03:28:22.607Z,4.80
2019-04-21T03:31:06.556Z,4.80
2019-04-21T03:38:17.150Z,4.70
2019-04-21T03:43:12.671Z,4.80
2019-04-21T03:50:39.713Z,4.60
2019-04-21T03:58:23.916Z,4.60
2019-04-21T04:01:11.805Z,4.60
2019-04-21T04:04:15.168Z,4.50
2019-04-21T04:06:24.597Z,4.50
2019-04-21T04:09:27.959Z,4.40
2019-04-21T04:11:53.055Z,4.30
2019-04-21T04:14:39.991Z,4.20
2019-04-21T04:16:57.070Z,4.20
2019-04-21T04:19:26.280Z,4.20
2019-04-21T04:22:01.289Z,4.20
2019-04-21T04:24:44.673Z,4.20
2019-04-21T04:31:47.621Z,4.30
2019-04-21T04:42:31.941Z,4.40
2019-04-21T04:54:55.817Z,4.50
2019-04-21T05:00:01.713Z,4.70
2019-04-21T05:05:09.127Z,4.80
2019-04-21T05:07:21.322Z,4.80
2019-04-21T05:09:55.479Z,4.90
2019-04-21T05:12:22.782Z,4.90
2019-04-21T05:14:55.081Z,5.00
2019-04-21T05:22:22.229Z,5.30
2019-04-21T05:24:44.059Z,5.40
2019-04-21T05:27:34.936Z,5.40
2019-04-21T05:30:17.346Z,5.50
2019-04-21T05:32:45.190Z,5.60
2019-04-21T05:35:41.830Z,5.70
2019-04-21T05:38:10.438Z,5.80
2019-04-21T05:40:36.943Z,6.00
2019-04-21T05:43:09.436Z,6.20
2019-04-21T05:45:48.979Z,6.30
2019-04-21T05:48:39.239Z,6.50
2019-04-21T05:51:03.664Z,6.60
2019-04-21T05:53:36.326Z,6.70
2019-04-21T05:56:12.809Z,6.90
2019-04-21T05:58:39.149Z,7.10
2019-04-21T06:06:20.269Z,7.50
2019-04-21T06:08:46.788Z,7.70
2019-04-21T06:11:17.890Z,7.80
2019-04-21T06:16:13.952Z,8.20
2019-04-21T06:18:53.232Z,8.30
2019-04-21T06:21:16.326Z,8.50
2019-04-21T06:23:47.875Z,8.70
2019-04-21T06:26:49.186Z,9.00
2019-04-21T06:29:05.577Z,9.20
2019-04-21T06:31:33.782Z,9.50
2019-04-21T06:34:04.950Z,9.80
2019-04-21T06:36:44.033Z,10.10
2019-04-21T06:39:12.155Z,10.30
2019-04-21T06:41:34.358Z,10.60
2019-04-21T06:46:41.279Z,11.30
2019-04-21T06:49:08.622Z,11.30
2019-04-21T06:54:09.541Z,11.70
2019-04-21T06:56:41.264Z,12.20
2019-04-21T06:59:22.166Z,12.50
2019-04-21T07:01:45.191Z,12.80
2019-04-21T07:04:21.026Z,12.90
2019-04-21T07:06:52.020Z,12.80
2019-04-21T07:09:20.749Z,12.90
2019-04-21T07:11:36.840Z,13.20
2019-04-21T07:14:27.345Z,14.00
2019-04-21T07:16:44.719Z,14.30
2019-04-21T07:19:25.738Z,14.20
2019-04-21T07:21:46.753Z,14.80
2019-04-21T07:24:21.161Z,15.10
2019-04-21T07:26:51.057Z,15.60
2019-04-21T07:29:25.893Z,15.80
2019-04-21T07:31:55.587Z,15.40
2019-04-21T07:34:23.944Z,15.60
2019-04-21T07:37:05.765Z,15.60
2019-04-21T07:39:18.038Z,16.50
2019-04-21T07:41:44.069Z,16.30
2019-04-21T07:44:09.151Z,16.60
2019-04-21T07:46:41.683Z,16.80
2019-04-21T07:49:46.261Z,16.80
2019-04-21T07:52:28.607Z,17.50
2019-04-21T07:55:06.232Z,17.90
2019-04-21T07:57:23.770Z,17.00
2019-04-21T08:00:07.123Z,17.80
2019-04-21T08:02:30.753Z,17.80
2019-04-21T08:05:05.547Z,18.30
2019-04-21T08:07:36.546Z,18.50
2019-04-21T08:09:58.713Z,18.40
2019-04-21T08:12:24.383Z,18.20
2019-04-21T08:14:57.547Z,18.70
2019-04-21T08:17:34.860Z,18.60
2019-04-21T08:19:59.098Z,18.70
2019-04-21T08:22:35.135Z,18.70
2019-04-21T08:25:03.353Z,19.10
2019-04-21T08:27:36.512Z,18.70
2019-04-21T08:30:05.019Z,18.80
2019-04-21T08:32:44.410Z,18.70
2019-04-21T08:35:23.969Z,18.80
2019-04-21T08:37:30.719Z,19.10
2019-04-21T08:40:09.636Z,19.20
2019-04-21T08:42:31.584Z,19.90
2019-04-21T08:45:10.747Z,20.40
2019-04-21T08:47:39.816Z,20.80
2019-04-21T08:50:08.269Z,21.10
2019-04-21T08:52:45.786Z,21.20
2019-04-21T08:55:22.540Z,20.90
2019-04-21T08:58:08.794Z,20.40
2019-04-21T09:00:42.669Z,20.80
2019-04-21T09:03:19.533Z,20.80
2019-04-21T09:05:46.714Z,21.40
2019-04-21T09:08:21.652Z,21.90
2019-04-21T09:10:51.802Z,20.70
2019-04-21T09:13:17.208Z,21.20
2019-04-21T09:15:47.393Z,21.70
2019-04-21T09:18:16.631Z,22.10
2019-04-21T09:20:55.184Z,22.40
2019-04-21T09:23:20.427Z,22.10
2019-04-21T09:25:53.151Z,21.90
2019-04-21T09:28:18.317Z,22.30
2019-04-21T09:30:39.520Z,22.70
2019-04-21T09:33:05.183Z,23.30
2019-04-21T09:35:33.539Z,21.80
2019-04-21T09:38:15.142Z,21.40
2019-04-21T09:40:37.158Z,21.20
2019-04-21T09:43:09.423Z,22.00
2019-04-21T09:45:35.595Z,22.00
2019-04-21T09:48:11.520Z,22.10
2019-04-21T09:50:37.737Z,22.70
2019-04-21T09:53:16.800Z,22.80
2019-04-21T09:55:44.086Z,23.20
2019-04-21T09:58:15.111Z,23.00
2019-04-21T10:00:46.388Z,23.30
2019-04-21T10:03:10.295Z,24.10
2019-04-21T10:05:39.999Z,24.10
2019-04-21T10:08:10.325Z,24.40
2019-04-21T10:10:40.027Z,24.60
2019-04-21T10:13:08.903Z,24.80
2019-04-21T10:15:37.731Z,25.60
2019-04-21T10:18:11.309Z,24.10
2019-04-21T10:20:40.647Z,24.70
2019-04-21T10:23:09.614Z,24.70
2019-04-21T10:25:40.604Z,25.00
2019-04-21T10:28:10.941Z,25.10
2019-04-21T10:30:40.749Z,24.70
2019-04-21T10:33:10.395Z,24.70
2019-04-21T10:35:39.437Z,23.80
2019-04-21T10:38:19.785Z,24.90
2019-04-21T10:40:39.271Z,24.40
2019-04-21T10:43:11.625Z,24.40
2019-04-21T10:45:39.150Z,24.50
2019-04-21T10:48:08.145Z,25.10
2019-04-21T10:50:37.090Z,25.90
2019-04-21T10:53:16.787Z,24.90
2019-04-21T10:56:00.401Z,25.10
2019-04-21T10:58:22.537Z,25.30
2019-04-21T11:00:55.694Z,24.20
2019-04-21T11:03:33.183Z,25.00
2019-04-21T11:06:03.264Z,25.80
2019-04-21T11:08:37.950Z,25.80
2019-04-21T11:11:06.125Z,25.80
2019-04-21T11:13:35.045Z,26.50
2019-04-21T11:16:05.377Z,26.60
2019-04-21T11:18:35.916Z,26.70
2019-04-21T11:21:05.192Z,27.40
2019-04-21T11:23:35.218Z,26.10
2019-04-21T11:26:04.418Z,26.10
2019-04-21T11:28:34.612Z,26.10
2019-04-21T11:31:04.889Z,25.10
2019-04-21T11:33:35.442Z,25.30
2019-04-21T11:36:04.373Z,26.60
2019-04-21T11:38:58.443Z,26.80
2019-04-21T11:41:15.924Z,26.70
2019-04-21T11:43:45.376Z,26.40
2019-04-21T11:46:14.330Z,26.80
2019-04-21T11:48:44.090Z,26.30
2019-04-21T11:51:13.161Z,25.80
2019-04-21T11:53:43.134Z,26.90
2019-04-21T11:56:14.686Z,26.90
2019-04-21T11:58:43.956Z,27.10
2019-04-21T12:01:13.898Z,27.30
2019-04-21T12:03:42.760Z,27.50
2019-04-21T12:06:11.572Z,27.20
2019-04-21T12:08:44.061Z,27.30
2019-04-21T12:11:11.413Z,27.50
2019-04-21T12:13:40.417Z,27.50
2019-04-21T12:16:12.883Z,27.20
2019-04-21T12:18:42.984Z,27.30
2019-04-21T12:21:13.657Z,27.70
2019-04-21T12:23:42.799Z,27.90
2019-04-21T12:26:11.691Z,27.50
2019-04-21T12:28:41.740Z,28.00
2019-04-21T12:31:51.693Z,27.30
2019-04-21T12:34:21.871Z,27.70
2019-04-21T12:36:50.887Z,27.30
2019-04-21T12:39:20.841Z,27.50
2019-04-21T12:41:50.765Z,27.80
2019-04-21T12:44:20.487Z,27.60
2019-04-21T12:46:49.840Z,28.10
2019-04-21T12:49:19.978Z,27.90
2019-04-21T12:51:49.628Z,27.70
2019-04-21T12:54:19.642Z,27.80
2019-04-21T12:56:49.482Z,28.20
2019-04-21T12:59:19.114Z,28.20
2019-04-21T13:01:48.613Z,28.40
2019-04-21T13:04:17.755Z,27.80
2019-04-21T13:06:47.617Z,28.30
2019-04-21T13:09:20.030Z,27.90
2019-04-21T13:11:47.349Z,27.60
2019-04-21T13:14:16.169Z,27.80
2019-04-21T13:16:45.725Z,27.70
2019-04-21T13:19:15.585Z,28.00
2019-04-21T13:21:45.743Z,27.80
2019-04-21T13:24:15.904Z,27.30
2019-04-21T13:26:51.128Z,27.50
2019-04-21T13:29:16.496Z,27.40
2019-04-21T13:31:45.518Z,27.60
2019-04-21T13:34:15.780Z,27.30
2019-04-21T13:36:45.535Z,27.50
2019-04-21T13:40:09.747Z,27.70
2019-04-21T13:42:28.226Z,27.90
2019-04-21T13:44:48.850Z,28.00
2019-04-21T13:47:18.615Z,27.50
2019-04-21T13:49:47.683Z,27.40
2019-04-21T13:52:16.763Z,27.50
2019-04-21T13:54:45.644Z,27.70
2019-04-21T13:57:14.496Z,28.10
2019-04-21T13:59:44.502Z,27.70
2019-04-21T14:02:13.447Z,27.30
2019-04-21T14:04:43.259Z,27.40
2019-04-21T14:07:12.281Z,27.60
2019-04-21T14:09:50.018Z,27.80
2019-04-21T14:12:11.802Z,27.20
2019-04-21T14:14:41.969Z,27.50
2019-04-21T14:17:11.017Z,27.80
2019-04-21T14:19:41.428Z,27.50
2019-04-21T14:22:13.906Z,27.60
2019-04-21T14:24:43.793Z,27.40
2019-04-21T14:27:14.251Z,27.50
2019-04-21T14:29:43.835Z,27.00
2019-04-21T14:32:14.014Z,27.10
2019-04-21T14:34:44.342Z,27.00
2019-04-21T14:37:14.749Z,27.00
2019-04-21T14:39:52.762Z,26.80
2019-04-21T14:42:14.443Z,26.60
2019-04-21T14:44:43.334Z,26.70
2019-04-21T14:47:31.526Z,26.20
2019-04-21T14:50:20.020Z,25.90
2019-04-21T14:53:08.013Z,26.10
2019-04-21T14:55:41.585Z,25.80
2019-04-21T14:58:10.513Z,25.60
2019-04-21T15:01:10.295Z,25.40
2019-04-21T15:03:39.589Z,25.10
2019-04-21T15:06:11.614Z,24.90
2019-04-21T15:08:40.547Z,24.30
2019-04-21T15:11:09.453Z,24.10
2019-04-21T15:13:39.649Z,24.20
2019-04-21T15:16:08.962Z,23.70
2019-04-21T15:18:38.935Z,23.70
2019-04-21T15:21:08.427Z,23.80
2019-04-21T15:23:38.239Z,23.70
2019-04-21T15:26:08.303Z,23.30
2019-04-21T15:28:38.818Z,23.30
2019-04-21T15:31:08.352Z,23.20
2019-04-21T15:33:37.186Z,22.90
2019-04-21T15:36:07.055Z,22.80
2019-04-21T15:38:36.076Z,22.50
2019-04-21T15:41:10.127Z,22.40
2019-04-21T15:43:36.388Z,22.20
2019-04-21T15:46:06.656Z,22.20
2019-04-21T15:48:36.962Z,22.10
2019-04-21T15:51:08.644Z,22.00
2019-04-21T15:53:37.476Z,21.90
2019-04-21T15:56:11.026Z,21.90
2019-04-21T15:58:58.901Z,21.80
2019-04-21T16:01:34.581Z,21.50
2019-04-21T16:04:04.739Z,21.70
2019-04-21T16:06:35.272Z,21.30
2019-04-21T16:09:08.412Z,21.20
2019-04-21T16:11:37.884Z,21.10
2019-04-21T16:14:10.116Z,21.00
2019-04-21T16:16:39.195Z,20.80
2019-04-21T16:19:08.239Z,20.50
2019-04-21T16:21:42.119Z,20.60
2019-04-21T16:24:08.896Z,20.70
2019-04-21T16:26:38.448Z,20.40
2019-04-21T16:29:08.986Z,20.20
2019-04-21T16:31:38.430Z,20.10
2019-04-21T16:34:07.286Z,20.00
2019-04-21T16:36:38.006Z,19.80
2019-04-21T16:39:09.511Z,19.80
2019-04-21T16:41:38.469Z,19.60
2019-04-21T16:44:09.290Z,19.50
2019-04-21T16:46:38.354Z,19.40
2019-04-21T16:49:07.564Z,19.40
2019-04-21T16:51:38.065Z,19.40
2019-04-21T16:54:19.977Z,19.30
2019-04-21T16:57:08.204Z,19.20
2019-04-21T16:59:44.479Z,19.20
2019-04-21T17:02:14.520Z,19.10
2019-04-21T17:04:44.348Z,19.00
2019-04-21T17:07:14.988Z,19.00
2019-04-21T17:09:44.397Z,18.80
2019-04-21T17:12:14.667Z,18.80
2019-04-21T17:14:58.465Z,18.80
2019-04-21T17:17:36.850Z,18.60
2019-04-21T17:19:48.492Z,18.50
2019-04-21T17:22:15.772Z,18.50
2019-04-21T17:24:44.612Z,18.30
2019-04-21T17:27:13.507Z,18.30
2019-04-21T17:29:43.041Z,18.20
2019-04-21T17:32:12.475Z,18.20
2019-04-21T17:34:41.377Z,18.10
2019-04-21T17:37:11.004Z,17.80
2019-04-21T17:39:40.675Z,17.80
2019-04-21T17:42:18.678Z,17.70
2019-04-21T17:44:41.283Z,17.60
2019-04-21T17:47:21.481Z,17.50
2019-04-21T17:49:43.121Z,17.40
2019-04-21T17:52:36.617Z,17.30
2019-04-21T17:55:11.259Z,17.10
2019-04-21T17:57:53.014Z,17.00
2019-04-21T18:00:42.037Z,16.70
2019-04-21T18:03:01.939Z,16.60
2019-04-21T18:05:32.243Z,16.50
2019-04-21T18:07:54.756Z,16.30
2019-04-21T18:10:33.866Z,16.30
2019-04-21T18:12:55.300Z,16.20
2019-04-21T18:15:34.022Z,16.10
2019-04-21T18:17:46.852Z,16.00
2019-04-21T18:20:20.117Z,15.80
2019-04-21T18:23:00.923Z,15.60
2019-04-21T18:25:43.855Z,15.40
2019-04-21T18:28:01.189Z,15.40
2019-04-21T18:31:00.464Z,15.20
2019-04-21T18:33:33.828Z,15.10
2019-04-21T18:36:34.100Z,15.00
2019-04-21T18:39:23.458Z,14.90
2019-04-21T18:42:02.470Z,14.70
2019-04-21T18:45:11.038Z,14.70
2019-04-21T18:47:27.611Z,14.50
2019-04-21T18:49:44.240Z,14.30
2019-04-21T18:52:26.913Z,14.20
2019-04-21T18:55:01.588Z,14.10
2019-04-21T18:57:30.936Z,13.90
2019-04-21T18:59:51.313Z,13.60
2019-04-21T19:02:22.360Z,13.50
2019-04-21T19:04:54.375Z,13.50
2019-04-21T19:07:37.387Z,13.40
2019-04-21T19:13:27.930Z,13.10
2019-04-21T19:15:07.157Z,13.00
2019-04-21T19:22:43.125Z,12.70
2019-04-21T19:25:16.444Z,12.80
2019-04-21T19:27:41.853Z,12.80
2019-04-21T19:32:59.470Z,12.70
2019-04-21T19:35:10.821Z,12.60
2019-04-21T19:37:49.583Z,12.60
2019-04-21T19:40:31.288Z,12.50
2019-04-21T19:42:53.265Z,12.40
2019-04-21T19:45:27.978Z,12.40
2019-04-21T19:48:08.066Z,12.30
2019-04-21T19:50:35.276Z,12.20
2019-04-21T19:52:57.828Z,12.10
2019-04-21T19:55:18.215Z,11.90
2019-04-21T19:57:47.194Z,11.90
2019-04-21T20:00:17.843Z,11.80
2019-04-21T20:02:48.385Z,11.70
2019-04-21T20:05:29.252Z,11.60
2019-04-21T20:08:06.396Z,11.50
2019-04-21T20:10:39.472Z,11.50
2019-04-21T20:13:07.845Z,11.50
2019-04-21T20:15:41.941Z,11.40
2019-04-21T20:18:06.238Z,11.30
2019-04-21T20:20:24.901Z,11.20
2019-04-21T20:22:55.626Z,11.20
2019-04-21T20:25:25.675Z,11.20
2019-04-21T20:28:04.957Z,11.10
2019-04-21T20:30:42.321Z,11.00
2019-04-21T20:33:38.205Z,11.00
2019-04-21T20:35:59.404Z,10.90
2019-04-21T20:38:16.128Z,10.80
2019-04-21T20:40:44.191Z,10.80
2019-04-21T20:43:28.524Z,10.80
2019-04-21T20:45:55.138Z,10.70
2019-04-21T20:48:15.329Z,10.60
2019-04-21T20:50:49.264Z,10.50
2019-04-21T20:53:25.118Z,10.40
2019-04-21T20:55:48.617Z,10.40
2019-04-21T20:58:25.400Z,10.30
2019-04-21T21:01:06.355Z,10.30
2019-04-21T21:03:34.034Z,10.20
2019-04-21T21:05:50.454Z,10.20
2019-04-21T21:08:32.760Z,10.10
2019-04-21T21:10:53.759Z,10.10
2019-04-21T21:13:39.694Z,10.10
2019-04-21T21:16:10.243Z,10.00
2019-04-21T21:18:51.385Z,9.90
2019-04-21T21:20:59.395Z,9.90
2019-04-21T21:23:40.180Z,9.90
2019-04-21T21:26:14.809Z,9.80
2019-04-21T21:28:32.625Z,9.80
2019-04-21T21:31:07.480Z,9.60
2019-04-21T21:33:37.302Z,9.60
2019-04-21T21:36:06.560Z,9.60
2019-04-21T21:38:39.373Z,9.50
2019-04-21T21:41:00.856Z,9.50
2019-04-21T21:43:23.597Z,9.50
2019-04-21T21:45:55.606Z,9.30
2019-04-21T21:48:38.464Z,9.20
2019-04-21T21:51:04.176Z,9.20
2019-04-21T21:53:26.531Z,9.10
2019-04-21T21:55:53.318Z,9.10
2019-04-21T21:58:29.906Z,9.10
2019-04-21T22:01:00.501Z,9.20
2019-04-21T22:03:35.361Z,9.10
2019-04-21T22:06:06.245Z,9.20
2019-04-21T22:08:30.450Z,9.10
2019-04-21T22:11:01.211Z,9.00
2019-04-21T22:13:37.544Z,9.00
2019-04-21T22:16:06.968Z,9.00
2019-04-21T22:18:56.820Z,8.90
2019-04-21T22:21:14.218Z,8.70
2019-04-21T22:23:47.011Z,8.70
2019-04-21T22:26:07.174Z,8.60
2019-04-21T22:28:36.137Z,8.70
2019-04-21T22:31:13.166Z,8.60
2019-04-21T22:33:41.960Z,8.60
2019-04-21T22:36:23.594Z,8.50
2019-04-21T22:38:52.210Z,8.50
2019-04-21T22:41:18.947Z,8.50
2019-04-21T22:43:43.794Z,8.40
2019-04-21T22:46:12.396Z,8.40
2019-04-21T22:48:40.962Z,8.40
2019-04-21T22:51:20.530Z,8.50
2019-04-21T22:53:46.481Z,8.40
2019-04-21T22:56:18.485Z,8.30
2019-04-21T22:58:44.450Z,8.20
2019-04-21T23:01:13.264Z,8.10
2019-04-21T23:03:49.234Z,8.10
2019-04-21T23:06:19.185Z,8.10
2019-04-21T23:08:45.652Z,8.00
2019-04-21T23:11:14.691Z,8.00
2019-04-21T23:13:51.369Z,8.00
2019-04-21T23:16:21.029Z,7.90
2019-04-21T23:19:07.518Z,7.90
2019-04-21T23:21:30.420Z,8.10
2019-04-21T23:24:08.755Z,8.10
2019-04-21T23:26:37.523Z,8.00
2019-04-21T23:29:13.940Z,8.10
2019-04-21T23:31:40.668Z,8.00
2019-04-21T23:33:52.716Z,8.10
2019-04-21T23:36:26.281Z,8.10
2019-04-21T23:38:55.027Z,8.10
2019-04-21T23:41:27.336Z,8.00
2019-04-21T23:44:00.381Z,7.90
2019-04-21T23:46:28.184Z,8.00
2019-04-21T23:49:07.149Z,7.90
2019-04-21T23:51:35.441Z,7.90
2019-04-21T23:53:55.426Z,7.90
2019-04-21T23:56:32.887Z,7.90
2019-04-21T23:58:59.871Z,7.80
